Airfield :







YOU CAN JOIN US ON...

 
LOGIN :

Register | Disclaimer

   EN    FR    IT 

 









Legend :    VFR   Marginal VFR   IFR   Intensive IFR   Very Intensive IFR
Visi :
Ceiling :
>= 8 km
>= 3000ft
5 to 8 km
1000 to 3000 ft
1500m to 5 km
500 to 1000 ft
800 to 1500m
200 to 500 ft
< 800m
< 200 ft
Symbols :   Thunderstorms  Fog  Heavy snow  Heavy precipitations  Wind > 20 kt






- Airport Elevation : 39 ft
- IATA code : YNA


CYNA - Natashquan

CURRENT METAR :
  • 192000Z AUTO 27017G26KT 9SM FEW076 21/15 A2973 RMK SLP071 DENSITY ALT 1000FT

EXPIRED METARs :
  • 191900Z AUTO 26016G23KT 9SM FEW076 21/15 A2973 RMK SLP069 DENSITY ALT 1000FT
  • 191800Z AUTO 28017G25KT 9SM CLR 21/16 A2972 RMK SLP068 DENSITY ALT 1000FT
  • 191700Z AUTO 27017G23KT 9SM FEW076 21/16 A2971 RMK SLP063 DENSITY ALT 1000FT
  • 191600Z AUTO 25013G21KT 9SM SCT066 20/16 A2970 RMK SLP060 DENSITY ALT 900FT

TAF TAF CYNA
Valid from the 19 at 20:00 until the 20 at 08:00 UTC


191945Z 1920/2008 26015G25KT P6SM SCT070
TEMPO 1920/1924 P6SM -SHRA BKN070
FM200000 27012KT P6SM SCT060
TEMPO 2000/2004 BKN060
FM200400 26010KT P6SM FEW060 RMK FCST BASED ON AUTO OBS. NXT FCST BY 200200Z
CZUL FIR / North America



MET'MAP, your aeronautical weather chart ! - Copyright ORBIFLY December 2007 - Disclaimer

ORBIFLY MET'MAP TEAM :

Programming & Development : Alexandra Zaïnal
Original concept : Baudouin d'Aumeries
Technical & hardware support : Manuel Goepfert
Assistance : Marc-Olivier Méhu




SOURCES & CREDITS :

   NOAA